createdAt,value
2022-11-28T00:00:51.930Z,22.7800
2022-11-28T00:01:54.393Z,22.7100
2022-11-28T00:02:56.769Z,22.7100
2022-11-28T00:03:59.004Z,22.7400
2022-11-28T00:05:01.327Z,22.7400
2022-11-28T00:06:01.522Z,22.7300
2022-11-28T00:07:03.922Z,22.7000
2022-11-28T00:08:06.254Z,22.7400
2022-11-28T00:09:08.578Z,22.7800
2022-11-28T00:10:10.913Z,22.7400
2022-11-28T00:11:11.137Z,22.7100
2022-11-28T00:12:13.766Z,22.7300
2022-11-28T00:13:15.866Z,22.7000
2022-11-28T00:14:18.246Z,22.6800
2022-11-28T00:15:20.616Z,22.6700
2022-11-28T00:16:20.881Z,22.6400
2022-11-28T00:17:23.222Z,22.6600
2022-11-28T00:18:25.553Z,22.7000
2022-11-28T00:19:27.929Z,22.7000
2022-11-28T00:20:28.178Z,22.7000
2022-11-28T00:21:30.553Z,22.7200
2022-11-28T00:22:33.009Z,22.7200
2022-11-28T00:23:35.337Z,22.7200
2022-11-28T00:24:35.569Z,22.6700
2022-11-28T00:25:37.951Z,22.6700
2022-11-28T00:26:40.345Z,22.6400
2022-11-28T00:27:42.879Z,22.6100
2022-11-28T00:28:45.094Z,22.6000
2022-11-28T00:29:45.278Z,22.5900
2022-11-28T00:30:47.692Z,22.5900
2022-11-28T00:31:50.171Z,22.5800
2022-11-28T00:32:50.370Z,22.5700
2022-11-28T00:33:52.690Z,22.5500
2022-11-28T00:34:55.073Z,22.6100
2022-11-28T00:35:57.431Z,22.6000
2022-11-28T00:36:59.799Z,22.5500
2022-11-28T00:38:00.028Z,22.5500
2022-11-28T00:39:02.306Z,22.5800
2022-11-28T00:40:04.614Z,22.5500
2022-11-28T00:41:06.945Z,22.5100
2022-11-28T00:42:09.273Z,22.5300
2022-11-28T00:43:09.582Z,22.5200
2022-11-28T00:44:11.733Z,22.5600
2022-11-28T00:45:14.061Z,22.5800
2022-11-28T00:46:16.475Z,22.5800
2022-11-28T00:47:18.664Z,22.6000
2022-11-28T00:48:21.019Z,22.5100
2022-11-28T00:49:21.220Z,22.4600
2022-11-28T00:50:23.578Z,22.5100
2022-11-28T00:51:25.936Z,22.5100
2022-11-28T00:52:28.263Z,22.5100
2022-11-28T00:53:30.722Z,22.5300
2022-11-28T00:54:30.759Z,22.5500
2022-11-28T00:55:33.044Z,22.5400
2022-11-28T00:56:35.351Z,22.5300
2022-11-28T00:57:37.654Z,22.5900
2022-11-28T00:58:40.115Z,22.5500
2022-11-28T00:59:42.305Z,22.5600
2022-11-28T01:00:44.688Z,22.5300
2022-11-28T01:01:44.905Z,22.5500
2022-11-28T01:02:47.243Z,22.5300
2022-11-28T01:03:49.515Z,22.5300
2022-11-28T01:04:51.792Z,22.5300
2022-11-28T01:05:54.152Z,22.5000
2022-11-28T01:06:56.460Z,22.5100
2022-11-28T01:07:58.918Z,22.5000
2022-11-28T01:09:01.166Z,22.4800
2022-11-28T01:10:03.477Z,22.4500
2022-11-28T01:11:05.806Z,22.4400
2022-11-28T01:12:05.996Z,22.4800
2022-11-28T01:13:08.322Z,22.5200
2022-11-28T01:14:10.828Z,22.5400
2022-11-28T01:15:13.001Z,22.5100
2022-11-28T01:16:14.246Z,22.4400
2022-11-28T01:17:16.496Z,22.3200
2022-11-28T01:18:18.772Z,22.2300
2022-11-28T01:19:19.009Z,22.2100
2022-11-28T01:20:21.305Z,22.2200
2022-11-28T01:21:23.590Z,22.2200
2022-11-28T01:22:23.793Z,22.2000
2022-11-28T01:23:26.096Z,22.1600
2022-11-28T01:24:28.413Z,22.2000
2022-11-28T01:25:30.615Z,22.2200
2022-11-28T01:26:30.785Z,22.2400
2022-11-28T01:27:33.107Z,22.2200
2022-11-28T01:28:35.459Z,22.1500
2022-11-28T01:29:35.920Z,22.1300
2022-11-28T01:30:37.959Z,22.1700
2022-11-28T01:31:40.356Z,22.1600
2022-11-28T01:32:42.615Z,22.1600
2022-11-28T01:33:44.931Z,22.1500
2022-11-28T01:34:47.319Z,22.1500
2022-11-28T01:37:02.653Z,22.2700
2022-11-28T01:38:04.887Z,22.3400
2022-11-28T01:39:06.040Z,22.3800
2022-11-28T01:40:07.386Z,22.3400
2022-11-28T01:41:09.590Z,22.3100
2022-11-28T01:42:11.902Z,22.3500
2022-11-28T01:43:14.217Z,22.3700
2022-11-28T01:44:16.548Z,22.3200
2022-11-28T01:45:19.022Z,22.3100
2022-11-28T01:46:19.140Z,22.3400
2022-11-28T01:47:21.393Z,22.3800
2022-11-28T01:48:23.711Z,22.3600
2022-11-28T01:49:26.077Z,22.3700
2022-11-28T01:50:28.562Z,22.3500
2022-11-28T01:51:28.574Z,22.3400
2022-11-28T01:52:30.895Z,22.4000
2022-11-28T01:53:33.223Z,22.4200
2022-11-28T01:54:35.592Z,22.4000
2022-11-28T01:55:37.998Z,22.3600
2022-11-28T01:56:40.333Z,22.3200
2022-11-28T01:57:40.549Z,22.3600
2022-11-28T01:58:42.927Z,22.4000
2022-11-28T01:59:45.282Z,22.3800
2022-11-28T02:00:47.942Z,22.3100
2022-11-28T02:01:47.960Z,22.3500
2022-11-28T02:02:50.263Z,22.3800
2022-11-28T02:03:52.601Z,22.3500
2022-11-28T02:04:54.981Z,22.3400
2022-11-28T02:05:57.405Z,22.3700
2022-11-28T02:06:57.608Z,22.3500
2022-11-28T02:08:00.049Z,22.3500
2022-11-28T02:09:02.357Z,22.3500
2022-11-28T02:10:04.674Z,22.3200
2022-11-28T02:11:04.918Z,22.3300
2022-11-28T02:12:07.199Z,22.3200
2022-11-28T02:13:09.552Z,22.2900
2022-11-28T02:14:11.960Z,22.2800
2022-11-28T02:15:12.201Z,22.2700
2022-11-28T02:16:14.780Z,22.2800
2022-11-28T02:17:16.988Z,22.2900
2022-11-28T02:18:19.363Z,22.2700
2022-11-28T02:19:19.536Z,22.2700
2022-11-28T02:20:21.897Z,22.2800
2022-11-28T02:21:24.309Z,22.2200
2022-11-28T02:22:26.664Z,22.2000
2022-11-28T02:23:29.057Z,22.1800
2022-11-28T02:24:29.248Z,22.2400
2022-11-28T02:25:31.632Z,22.2200
2022-11-28T02:26:34.157Z,22.2000
2022-11-28T02:27:36.401Z,22.2300
2022-11-28T02:28:36.603Z,22.2600
2022-11-28T02:29:38.975Z,22.2300
2022-11-28T02:30:41.330Z,22.2500
2022-11-28T02:31:43.865Z,22.2100
2022-11-28T02:32:43.854Z,22.1900
2022-11-28T02:33:46.230Z,22.2100
2022-11-28T02:34:49.012Z,22.2000
2022-11-28T02:35:50.958Z,22.2400
2022-11-28T02:36:53.464Z,22.1800
2022-11-28T02:37:53.556Z,22.1800
2022-11-28T02:38:55.908Z,22.1700
2022-11-28T02:39:58.317Z,22.1900
2022-11-28T02:41:00.715Z,22.1900
2022-11-28T02:42:00.996Z,22.1900
2022-11-28T02:43:03.321Z,22.2200
2022-11-28T02:44:05.674Z,22.2100
2022-11-28T02:45:08.029Z,22.2000
2022-11-28T02:46:08.280Z,22.2200
2022-11-28T02:47:11.025Z,22.2600
2022-11-28T02:48:13.057Z,22.2100
2022-11-28T02:49:15.381Z,22.1800
2022-11-28T02:50:17.713Z,22.1800
2022-11-28T02:51:17.898Z,22.2000
2022-11-28T02:52:20.304Z,22.2100
2022-11-28T02:53:22.550Z,22.1700
2022-11-28T02:54:24.892Z,22.1400
2022-11-28T02:55:27.083Z,22.1300
2022-11-28T02:56:29.306Z,22.1300
2022-11-28T02:57:31.645Z,22.1300
2022-11-28T02:58:31.570Z,22.1100
2022-11-28T02:59:33.804Z,22.1400
2022-11-28T03:00:36.211Z,22.0900
2022-11-28T03:01:38.333Z,22.1100
2022-11-28T03:02:40.616Z,22.1000
2022-11-28T03:03:42.700Z,22.1200
2022-11-28T03:04:45.121Z,22.1500
2022-11-28T03:05:47.306Z,22.1500
2022-11-28T03:06:49.605Z,22.1700
2022-11-28T03:07:49.816Z,22.1100
2022-11-28T03:08:52.025Z,22.1200
2022-11-28T03:09:54.373Z,22.1100
2022-11-28T03:10:56.736Z,22.1500
2022-11-28T03:11:59.029Z,22.1400
2022-11-28T03:12:59.332Z,22.1400
2022-11-28T03:14:01.562Z,22.1200
2022-11-28T03:15:03.895Z,22.1100
2022-11-28T03:16:06.309Z,22.1200
2022-11-28T03:17:08.545Z,22.1000
2022-11-28T03:18:11.040Z,22.0500
2022-11-28T03:19:11.036Z,22.0900
2022-11-28T03:20:13.344Z,22.1200
2022-11-28T03:21:15.671Z,22.1500
2022-11-28T03:22:17.973Z,22.1000
2022-11-28T03:23:20.449Z,22.0800
2022-11-28T03:24:22.635Z,22.0600
2022-11-28T03:25:22.812Z,22.0800
2022-11-28T03:26:25.140Z,22.1100
2022-11-28T03:27:27.513Z,22.0900
2022-11-28T03:28:29.981Z,22.1100
2022-11-28T03:29:32.184Z,22.1100
2022-11-28T03:30:34.525Z,22.1900
2022-11-28T03:31:36.998Z,22.1300
2022-11-28T03:32:39.256Z,22.1100
2022-11-28T03:33:41.885Z,22.0800
2022-11-28T03:34:42.166Z,22.1100
2022-11-28T03:35:44.189Z,22.0600
2022-11-28T03:36:46.535Z,22.0400
2022-11-28T03:37:48.916Z,22.0900
2022-11-28T03:38:49.252Z,22.0800
2022-11-28T03:39:51.486Z,22.0400
2022-11-28T03:40:53.831Z,22.0600
2022-11-28T03:41:56.166Z,22.1100
2022-11-28T03:42:58.431Z,22.1200
2022-11-28T03:44:00.764Z,22.1200
2022-11-28T03:45:00.924Z,22.0600
2022-11-28T03:46:03.240Z,22.0600
2022-11-28T03:47:05.643Z,22.1000
2022-11-28T03:48:07.870Z,22.1100
2022-11-28T03:49:10.428Z,22.0300
2022-11-28T03:50:12.500Z,22.0300
2022-11-28T03:51:12.670Z,22.0400
2022-11-28T03:52:15.018Z,22.0100
2022-11-28T03:53:17.338Z,22.0100
2022-11-28T03:54:19.690Z,21.9900
2022-11-28T03:55:22.084Z,22.0400
2022-11-28T03:56:24.244Z,22.0400
2022-11-28T03:57:24.414Z,22.0400
2022-11-28T03:58:26.719Z,21.9800
2022-11-28T03:59:29.060Z,21.9800
2022-11-28T04:00:31.294Z,21.9600
2022-11-28T04:01:33.639Z,21.9800
2022-11-28T04:02:35.853Z,21.9900
2022-11-28T04:03:35.949Z,21.9200
2022-11-28T04:04:38.371Z,21.9100
2022-11-28T04:05:40.467Z,21.8900
2022-11-28T04:06:42.745Z,21.9100
2022-11-28T04:07:45.105Z,21.9200
2022-11-28T04:08:47.334Z,22.0000
2022-11-28T04:09:49.673Z,22.0000
2022-11-28T04:10:51.861Z,22.0000
2022-11-28T04:11:52.011Z,22.0500
2022-11-28T04:12:54.313Z,22.0300
2022-11-28T04:13:56.649Z,22.0200
2022-11-28T04:14:59.012Z,22.0200
2022-11-28T04:16:01.364Z,22.0500
2022-11-28T04:17:03.691Z,22.0300
2022-11-28T04:18:03.752Z,21.9700
2022-11-28T04:20:04.365Z,21.9200
2022-11-28T04:21:06.459Z,21.9100
2022-11-28T04:22:08.744Z,21.9300
2022-11-28T04:23:11.068Z,21.9600
2022-11-28T04:24:11.225Z,21.9700
2022-11-28T04:25:13.682Z,22.0000
2022-11-28T04:26:15.841Z,21.9900
2022-11-28T04:27:18.122Z,21.9600
2022-11-28T04:28:20.445Z,22.0100
2022-11-28T04:29:22.782Z,22.0100
2022-11-28T04:30:23.088Z,21.9900
2022-11-28T04:31:25.377Z,21.9800
2022-11-28T04:32:27.624Z,21.9800
2022-11-28T04:33:29.991Z,22.0100
2022-11-28T04:34:32.337Z,22.0200
2022-11-28T04:35:34.843Z,21.9800
2022-11-28T04:36:34.818Z,21.9900
2022-11-28T04:37:37.156Z,22.0200
2022-11-28T04:38:39.521Z,21.9900
2022-11-28T04:39:41.890Z,21.9700
2022-11-28T04:41:31.699Z,21.9300
2022-11-28T04:42:33.967Z,21.9600
2022-11-28T04:43:36.301Z,21.9400
2022-11-28T04:44:36.502Z,21.9400
2022-11-28T04:45:38.890Z,21.9800
2022-11-28T04:46:41.204Z,21.9600
2022-11-28T04:47:43.468Z,21.9400
2022-11-28T04:48:45.792Z,21.9200
2022-11-28T04:49:45.995Z,21.8900
2022-11-28T04:50:48.406Z,21.9100
2022-11-28T04:51:50.678Z,21.9500
2022-11-28T04:52:53.013Z,22.0000
2022-11-28T04:53:55.359Z,22.0600
2022-11-28T04:54:57.715Z,22.0800
2022-11-28T04:55:57.916Z,22.0400
2022-11-28T04:57:00.263Z,21.9600
2022-11-28T04:58:02.558Z,21.9300
2022-11-28T04:59:04.832Z,22.0200
2022-11-28T05:00:07.075Z,22.0600
2022-11-28T05:01:09.419Z,22.0500
2022-11-28T05:02:11.818Z,22.0600
2022-11-28T05:03:11.713Z,22.1100
2022-11-28T05:04:13.977Z,22.0800
2022-11-28T05:05:16.232Z,22.1300
2022-11-28T05:06:18.629Z,22.1400
2022-11-28T05:07:20.907Z,22.0800
2022-11-28T05:08:23.122Z,21.9600
2022-11-28T05:09:25.498Z,21.9100
2022-11-28T05:10:25.700Z,21.9000
2022-11-28T05:11:28.015Z,21.9000
2022-11-28T05:12:30.318Z,21.8900
2022-11-28T05:13:32.615Z,21.9600
2022-11-28T05:14:34.899Z,21.9200
2022-11-28T05:15:35.049Z,21.8900
2022-11-28T05:16:37.439Z,21.8700
2022-11-28T05:17:42.520Z,21.8900
2022-11-28T05:18:41.946Z,21.9300
2022-11-28T05:19:44.247Z,21.9400
2022-11-28T05:20:46.549Z,21.9500
2022-11-28T05:21:46.836Z,21.9400
2022-11-28T05:22:49.140Z,21.9200
2022-11-28T05:23:51.313Z,21.9300
2022-11-28T05:24:53.606Z,21.9400
2022-11-28T05:25:55.924Z,21.8900
2022-11-28T05:26:56.094Z,21.9100
2022-11-28T05:27:58.453Z,21.9200
2022-11-28T05:29:00.774Z,21.9700
2022-11-28T05:30:03.150Z,21.9700
2022-11-28T05:31:05.542Z,21.9700
2022-11-28T05:32:05.773Z,21.9300
2022-11-28T05:33:08.103Z,21.9400
2022-11-28T05:34:10.448Z,21.9500
2022-11-28T05:35:12.808Z,22.0000
2022-11-28T05:36:15.170Z,21.9900
2022-11-28T05:37:15.490Z,21.9500
2022-11-28T05:38:17.765Z,21.9600
2022-11-28T05:39:20.077Z,21.9900
2022-11-28T05:40:22.430Z,22.0000
2022-11-28T05:41:22.593Z,21.9600
2022-11-28T05:42:24.926Z,21.9800
2022-11-28T05:43:27.311Z,22.0400
2022-11-28T05:44:29.644Z,21.9600
2022-11-28T05:45:32.045Z,22.0200
2022-11-28T05:46:34.325Z,22.0000
2022-11-28T05:47:34.502Z,22.0400
2022-11-28T05:48:36.922Z,22.0500
2022-11-28T05:49:39.228Z,22.0200
2022-11-28T05:50:41.576Z,22.0200
2022-11-28T05:51:43.908Z,22.0200
2022-11-28T05:52:44.214Z,22.0800
2022-11-28T05:53:46.477Z,22.0000
2022-11-28T05:54:48.802Z,22.0000
2022-11-28T05:55:51.049Z,22.0100
2022-11-28T05:56:53.340Z,22.0300
2022-11-28T05:57:53.476Z,21.9900
2022-11-28T05:58:55.886Z,22.0400
2022-11-28T05:59:58.022Z,22.1100
2022-11-28T06:01:00.318Z,22.0900
2022-11-28T06:02:02.859Z,22.0900
2022-11-28T06:03:05.012Z,22.0500
2022-11-28T06:04:07.440Z,22.0300
2022-11-28T06:05:27.731Z,22.0300
2022-11-28T06:06:11.990Z,22.0300
2022-11-28T06:07:12.204Z,22.0600
2022-11-28T06:08:14.636Z,22.0900
2022-11-28T06:09:16.874Z,22.0800
2022-11-28T06:10:19.157Z,22.0700
2022-11-28T06:11:21.486Z,22.0500
2022-11-28T06:12:23.804Z,22.0800
2022-11-28T06:13:23.975Z,22.1200
2022-11-28T06:14:26.329Z,22.1100
2022-11-28T06:15:28.576Z,22.1400
2022-11-28T06:16:30.882Z,22.1200
2022-11-28T06:17:33.126Z,22.1200
2022-11-28T06:18:35.431Z,22.1200
2022-11-28T06:19:37.785Z,22.1000
2022-11-28T06:20:37.922Z,22.1000
2022-11-28T06:21:40.240Z,22.0700
2022-11-28T06:22:42.560Z,22.0800
2022-11-28T06:23:45.006Z,22.0600
2022-11-28T06:24:47.239Z,22.0500
2022-11-28T06:25:47.365Z,22.0800
2022-11-28T06:26:49.666Z,22.0600
2022-11-28T06:27:51.923Z,22.0900
2022-11-28T06:28:54.233Z,22.0800
2022-11-28T06:29:56.558Z,22.1100
2022-11-28T06:30:58.821Z,22.1700
2022-11-28T06:32:01.192Z,22.2100
2022-11-28T06:33:03.348Z,22.1700
2022-11-28T06:34:05.546Z,22.2100
2022-11-28T06:35:07.866Z,22.1900
2022-11-28T06:36:09.944Z,22.2000
2022-11-28T06:37:12.174Z,22.1900
2022-11-28T06:38:14.672Z,22.2400
2022-11-28T06:39:16.735Z,22.1600
2022-11-28T06:40:18.872Z,22.1500
2022-11-28T06:41:21.062Z,22.1500
2022-11-28T06:42:21.145Z,22.1900
2022-11-28T06:43:23.369Z,22.1600
2022-11-28T06:44:25.660Z,22.1800
2022-11-28T06:45:25.901Z,22.2400
2022-11-28T06:46:28.164Z,22.2000
2022-11-28T06:47:30.396Z,22.1600
2022-11-28T06:48:32.698Z,22.1700
2022-11-28T06:49:34.971Z,22.2400
2022-11-28T06:50:37.312Z,22.2200
2022-11-28T06:51:39.560Z,22.2700
2022-11-28T06:52:39.703Z,22.2300
2022-11-28T06:53:42.012Z,22.1900
2022-11-28T06:54:44.436Z,22.2200
2022-11-28T06:55:46.694Z,22.1900
2022-11-28T06:56:48.932Z,22.1600
2022-11-28T06:57:51.258Z,22.1100
2022-11-28T06:58:51.396Z,22.0800
2022-11-28T06:59:53.721Z,22.0900
2022-11-28T07:00:56.129Z,22.1800
2022-11-28T07:02:00.827Z,22.1800
2022-11-28T07:02:58.513Z,22.2000
2022-11-28T07:04:00.807Z,22.2300
2022-11-28T07:05:03.096Z,22.1400
2022-11-28T07:06:05.432Z,22.1900
2022-11-28T07:07:07.713Z,22.2500
2022-11-28T07:08:10.060Z,22.2700
2022-11-28T07:09:12.261Z,22.2900
2022-11-28T07:10:12.544Z,22.3000
2022-11-28T07:11:14.838Z,22.2800
2022-11-28T07:12:17.007Z,22.2800
2022-11-28T07:13:19.293Z,22.2500
2022-11-28T07:14:21.608Z,22.2800
2022-11-28T07:15:23.937Z,22.3200
2022-11-28T07:16:29.817Z,22.3100
2022-11-28T07:17:29.565Z,22.1900
2022-11-28T07:18:31.896Z,22.1200
2022-11-28T07:19:34.215Z,22.0900
2022-11-28T07:20:36.542Z,22.0900
2022-11-28T07:21:38.892Z,22.0900
2022-11-28T07:22:41.155Z,22.0800
2022-11-28T07:23:43.467Z,22.1000
2022-11-28T07:24:45.810Z,22.0900
2022-11-28T07:25:48.224Z,22.1100
2022-11-28T07:26:50.703Z,22.0900
2022-11-28T07:27:52.761Z,22.0700
2022-11-28T07:28:55.097Z,22.0800
2022-11-28T07:29:57.430Z,22.1000
2022-11-28T07:30:59.762Z,22.1300
2022-11-28T07:32:02.278Z,22.0700
2022-11-28T07:33:04.393Z,22.0600
2022-11-28T07:34:06.724Z,22.0600
2022-11-28T07:35:09.151Z,22.0800
2022-11-28T07:36:11.367Z,22.0500
2022-11-28T07:37:13.842Z,22.0500
2022-11-28T07:38:16.035Z,22.0900
2022-11-28T07:39:18.378Z,22.0600
2022-11-28T07:40:20.709Z,21.9500
2022-11-28T07:41:26.492Z,21.9200
2022-11-28T07:42:25.723Z,21.9800
2022-11-28T07:43:27.659Z,22.0400
2022-11-28T07:44:29.982Z,22.0700
2022-11-28T07:45:53.476Z,22.0600
2022-11-28T07:46:34.699Z,22.0400
2022-11-28T07:47:37.056Z,22.0100
2022-11-28T07:48:39.228Z,22.0000
2022-11-28T07:49:41.936Z,22.0200
2022-11-28T07:50:43.788Z,22.0500
2022-11-28T07:51:46.164Z,22.0800
2022-11-28T07:52:48.580Z,22.0800
2022-11-28T07:53:50.932Z,22.0500
2022-11-28T07:54:53.274Z,22.0900
2022-11-28T07:55:53.490Z,22.1100
2022-11-28T07:57:12.668Z,22.1000
2022-11-28T07:57:58.228Z,22.1100
2022-11-28T07:59:03.331Z,22.1400
2022-11-28T08:00:02.774Z,22.1200
2022-11-28T08:01:05.104Z,22.1300
2022-11-28T08:02:07.543Z,22.1100
2022-11-28T08:03:09.742Z,22.1400
2022-11-28T08:04:12.064Z,22.1400
2022-11-28T08:05:14.477Z,22.1700
2022-11-28T08:06:16.707Z,22.1700
2022-11-28T08:07:19.109Z,22.1400
2022-11-28T08:08:19.286Z,22.1100
2022-11-28T08:09:21.589Z,22.1500
2022-11-28T08:10:23.911Z,22.1300
2022-11-28T08:11:26.259Z,22.1200
2022-11-28T08:12:28.639Z,22.1300
2022-11-28T08:13:30.969Z,22.1400
2022-11-28T08:14:33.295Z,22.1100
2022-11-28T08:15:35.651Z,22.1300
2022-11-28T08:16:38.073Z,22.1200
2022-11-28T08:17:38.220Z,22.1400
2022-11-28T08:18:40.644Z,22.1700
2022-11-28T08:19:42.962Z,22.1400
2022-11-28T08:20:43.189Z,22.1600
2022-11-28T08:21:45.557Z,22.1900
2022-11-28T08:22:47.949Z,22.1700
2022-11-28T08:23:48.179Z,22.2000
2022-11-28T08:24:50.482Z,22.2300
2022-11-28T08:25:52.810Z,22.2300
2022-11-28T08:26:53.032Z,22.1700
2022-11-28T08:27:55.430Z,22.1600
2022-11-28T08:28:57.851Z,22.1900
2022-11-28T08:29:58.050Z,22.1300
2022-11-28T08:31:00.507Z,22.0600
2022-11-28T08:32:02.854Z,22.0900
2022-11-28T08:33:03.055Z,22.0800
2022-11-28T08:34:05.478Z,22.0900
2022-11-28T08:35:07.846Z,22.1200
2022-11-28T08:36:08.063Z,22.1700
2022-11-28T08:37:10.440Z,22.2100
2022-11-28T08:38:12.787Z,22.1800
2022-11-28T08:39:28.526Z,22.1800
2022-11-28T08:40:15.423Z,22.1700
2022-11-28T08:41:17.821Z,22.1800
2022-11-28T08:42:18.045Z,22.1900
2022-11-28T08:43:20.478Z,22.1300
2022-11-28T08:44:22.874Z,22.1000
2022-11-28T08:45:25.245Z,22.1300
2022-11-28T08:46:27.765Z,22.1400
2022-11-28T08:47:27.845Z,22.1400
2022-11-28T08:48:30.183Z,22.1300
2022-11-28T08:49:32.662Z,22.1300
2022-11-28T08:50:34.845Z,22.1500
2022-11-28T08:51:37.165Z,22.1300
2022-11-28T08:52:39.444Z,22.1600
2022-11-28T08:53:44.009Z,22.1700
2022-11-28T08:54:44.488Z,22.1700
2022-11-28T08:55:46.425Z,22.1800
2022-11-28T08:56:48.751Z,22.1200
2022-11-28T08:57:51.078Z,22.0800
2022-11-28T08:58:53.436Z,22.0500
2022-11-28T08:59:53.648Z,22.1100
2022-11-28T09:00:55.967Z,22.0900
2022-11-28T09:03:21.053Z,22.2700
2022-11-28T09:04:22.384Z,22.3000
2022-11-28T09:05:24.604Z,22.3500
2022-11-28T09:06:26.857Z,22.3600
2022-11-28T09:07:29.156Z,22.3800
2022-11-28T09:08:31.404Z,22.3800
2022-11-28T09:09:33.687Z,22.3800
2022-11-28T09:10:33.864Z,22.4300
2022-11-28T09:11:36.142Z,22.4600
2022-11-28T09:12:38.424Z,22.4500
2022-11-28T09:13:40.707Z,22.4400
2022-11-28T09:14:42.999Z,22.4600
2022-11-28T09:15:45.284Z,22.4600
2022-11-28T09:16:47.510Z,22.4000
2022-11-28T09:17:49.759Z,22.4000
2022-11-28T09:18:49.901Z,22.4400
2022-11-28T09:19:52.182Z,22.4600
2022-11-28T09:20:54.622Z,22.4300
2022-11-28T09:21:58.091Z,22.4400
2022-11-28T09:22:59.159Z,22.4600
2022-11-28T09:24:01.512Z,22.4300
2022-11-28T09:25:01.684Z,22.4700
2022-11-28T09:26:04.033Z,22.4500
2022-11-28T09:27:06.314Z,22.4600
2022-11-28T09:28:08.677Z,22.4600
2022-11-28T09:29:11.028Z,22.5000
2022-11-28T09:30:11.253Z,22.4600
2022-11-28T09:31:13.668Z,22.4600
2022-11-28T09:32:15.897Z,22.4800
2022-11-28T09:33:18.202Z,22.4800
2022-11-28T09:34:20.544Z,22.4900
2022-11-28T09:35:22.813Z,22.4600
2022-11-28T09:36:22.959Z,22.4300
2022-11-28T09:37:25.275Z,22.4400
2022-11-28T09:38:27.614Z,22.4800
2022-11-28T09:39:39.552Z,22.5100
2022-11-28T09:40:32.257Z,22.4800
2022-11-28T09:41:32.581Z,22.4300
2022-11-28T09:42:34.818Z,22.3900
2022-11-28T09:43:37.187Z,22.4400
2022-11-28T09:44:39.506Z,22.4700
2022-11-28T09:45:41.911Z,22.4800
2022-11-28T09:46:42.075Z,22.5200
2022-11-28T09:47:44.401Z,22.5500
2022-11-28T09:48:46.765Z,22.5200
2022-11-28T09:49:49.109Z,22.5100
2022-11-28T09:50:51.440Z,22.5000
2022-11-28T09:51:51.734Z,22.5000
2022-11-28T09:52:54.007Z,22.5100
2022-11-28T09:53:56.223Z,22.5700
2022-11-28T09:54:58.547Z,22.6000
2022-11-28T09:56:00.837Z,22.6200
2022-11-28T09:57:03.199Z,22.5700
2022-11-28T09:58:03.309Z,22.5500
2022-11-28T09:59:05.558Z,22.5900
2022-11-28T10:00:07.848Z,22.6400
2022-11-28T10:01:10.177Z,22.5900
2022-11-28T10:02:12.587Z,22.5700
2022-11-28T10:03:14.829Z,22.5900
2022-11-28T10:04:17.121Z,22.6400
2022-11-28T10:05:19.305Z,22.6400
2022-11-28T10:06:19.408Z,22.6400
2022-11-28T10:07:21.893Z,22.6000
2022-11-28T10:08:23.948Z,22.6100
2022-11-28T10:09:26.231Z,22.6400
2022-11-28T10:10:28.523Z,22.6200
2022-11-28T10:11:30.862Z,22.6600
2022-11-28T10:12:33.337Z,22.6800
2022-11-28T10:13:53.578Z,22.7200
2022-11-28T10:14:37.873Z,22.7100
2022-11-28T10:15:40.238Z,22.7200
2022-11-28T10:16:42.873Z,22.6800
2022-11-28T10:17:42.812Z,22.7100
2022-11-28T10:18:45.107Z,22.7300
2022-11-28T10:19:54.154Z,22.7200
2022-11-28T10:20:49.770Z,22.6900
2022-11-28T10:21:57.872Z,22.7100
2022-11-28T10:22:52.400Z,22.7000
2022-11-28T10:23:54.725Z,22.7200
2022-11-28T10:24:57.074Z,22.6700
2022-11-28T10:25:59.424Z,22.6900
2022-11-28T10:27:01.746Z,22.7000
2022-11-28T10:28:02.092Z,22.7300
2022-11-28T10:29:04.290Z,22.7400
2022-11-28T10:30:06.638Z,22.7600
2022-11-28T10:31:08.994Z,22.7800
2022-11-28T10:32:11.323Z,22.8100
2022-11-28T10:33:11.520Z,22.8200
2022-11-28T10:34:13.835Z,22.7700
2022-11-28T10:35:16.197Z,22.7600
2022-11-28T10:36:18.581Z,22.7500
2022-11-28T10:37:20.953Z,22.7800
2022-11-28T10:38:21.283Z,22.7800
2022-11-28T10:39:23.504Z,22.7900
2022-11-28T10:40:25.835Z,22.7900
2022-11-28T10:41:28.192Z,22.7900
2022-11-28T10:42:30.533Z,22.8100
2022-11-28T10:43:30.763Z,22.8100
2022-11-28T10:44:33.090Z,22.8000
2022-11-28T10:45:35.468Z,22.8000
2022-11-28T10:46:37.916Z,22.7700
2022-11-28T10:47:40.257Z,22.8000
2022-11-28T10:48:42.575Z,22.7900
2022-11-28T10:49:45.255Z,22.7900
2022-11-28T10:50:47.222Z,22.8000
2022-11-28T10:51:49.560Z,22.8300
2022-11-28T10:52:49.758Z,22.8100
2022-11-28T10:53:52.209Z,22.8300
2022-11-28T10:54:54.408Z,22.8300
2022-11-28T10:55:56.754Z,22.8400
2022-11-28T10:56:59.090Z,22.8600
2022-11-28T10:57:59.257Z,22.8700
2022-11-28T10:59:01.635Z,22.8700
2022-11-28T11:00:03.814Z,22.8800
2022-11-28T11:01:06.213Z,22.9000
2022-11-28T11:02:08.445Z,22.8800
2022-11-28T11:03:10.761Z,22.8800
2022-11-28T11:04:13.149Z,22.8600
2022-11-28T11:05:13.210Z,22.9000
2022-11-28T11:06:15.536Z,22.8200
2022-11-28T11:07:21.009Z,22.8000
2022-11-28T11:08:20.354Z,22.7600
2022-11-28T11:09:22.505Z,22.7300
2022-11-28T11:10:24.794Z,22.7400
2022-11-28T11:11:24.939Z,22.7700
2022-11-28T11:12:27.256Z,22.8100
2022-11-28T11:13:29.522Z,22.7800
2022-11-28T11:14:31.875Z,22.8100
2022-11-28T11:15:34.153Z,22.8400
2022-11-28T11:16:36.571Z,22.8900
2022-11-28T11:17:38.783Z,22.8600
2022-11-28T11:18:38.955Z,22.8600
2022-11-28T11:19:41.814Z,22.8800
2022-11-28T11:20:43.551Z,22.8400
2022-11-28T11:21:45.895Z,22.8600
2022-11-28T11:22:48.206Z,22.8700
2022-11-28T11:23:48.397Z,22.8900
2022-11-28T11:26:21.139Z,22.8400
2022-11-28T11:27:21.210Z,22.8500
2022-11-28T11:28:23.507Z,22.8500
2022-11-28T11:29:25.844Z,22.7900
2022-11-28T11:30:28.286Z,22.7900
2022-11-28T11:31:30.544Z,22.7900
2022-11-28T11:32:30.689Z,22.8500
2022-11-28T11:33:33.029Z,22.8600
2022-11-28T11:34:35.404Z,22.8600
2022-11-28T11:35:37.663Z,22.9000
2022-11-28T11:36:40.089Z,22.9000
2022-11-28T11:37:40.130Z,22.8600
2022-11-28T11:38:42.442Z,22.9000
2022-11-28T11:39:45.055Z,22.8900
2022-11-28T11:40:47.028Z,22.8700
2022-11-28T11:41:49.504Z,22.9200
2022-11-28T11:42:51.645Z,22.9200
2022-11-28T11:43:54.003Z,22.9600
2022-11-28T11:44:54.201Z,22.9400
2022-11-28T11:45:56.582Z,22.9300
2022-11-28T11:46:59.006Z,22.9300
2022-11-28T11:48:01.219Z,22.9100
2022-11-28T11:49:03.546Z,22.9100
2022-11-28T11:50:03.791Z,22.9200
2022-11-28T11:51:06.067Z,22.9500
2022-11-28T11:52:08.633Z,22.9500
2022-11-28T11:53:10.691Z,22.9900
2022-11-28T11:54:13.071Z,22.9600
2022-11-28T11:55:13.262Z,22.9400
2022-11-28T11:56:15.614Z,22.9200
2022-11-28T11:57:32.514Z,22.9700
2022-11-28T11:58:20.290Z,22.9600
2022-11-28T11:59:22.586Z,22.9700
2022-11-28T12:00:24.917Z,22.9900
2022-11-28T12:01:25.038Z,23.0100
2022-11-28T12:02:27.365Z,23.0300
2022-11-28T12:03:29.675Z,23.0200
2022-11-28T12:04:45.034Z,23.0200
2022-11-28T12:05:52.389Z,23.0200
2022-11-28T12:06:36.291Z,22.9800
2022-11-28T12:07:38.689Z,23.0100
2022-11-28T12:08:38.751Z,23.0300
2022-11-28T12:09:41.220Z,23.0300
2022-11-28T12:10:43.489Z,23.0300
2022-11-28T12:11:47.236Z,23.0700
2022-11-28T12:12:48.343Z,23.0600
2022-11-28T12:13:48.417Z,23.0500
2022-11-28T12:14:50.768Z,23.0500
2022-11-28T12:15:53.151Z,23.0600
2022-11-28T12:16:55.366Z,23.0900
2022-11-28T12:17:59.186Z,23.0800
2022-11-28T12:19:00.003Z,23.1100
2022-11-28T12:20:00.175Z,23.1300
2022-11-28T12:21:02.517Z,23.1100
2022-11-28T12:22:04.804Z,23.0600
2022-11-28T12:23:07.260Z,23.0200
2022-11-28T12:25:16.150Z,23.0500
2022-11-28T12:26:18.376Z,23.0800
2022-11-28T12:27:20.634Z,23.0900
2022-11-28T12:28:23.011Z,23.0800
2022-11-28T12:29:25.159Z,23.1100
2022-11-28T12:30:27.386Z,23.1400
2022-11-28T12:31:29.751Z,23.1300
2022-11-28T12:32:31.914Z,23.1000
2022-11-28T12:33:34.173Z,23.0800
2022-11-28T12:34:34.226Z,23.1200
2022-11-28T12:35:36.473Z,23.1200
2022-11-28T12:36:38.842Z,23.1000